Harpswell, Maine
Current Conditions -  °F | °C
As of 9:51 AM on Thursday 23 Oct 2014 (Local Time) from KPWM Reporting Station
Light Rain Light Rain  
Wind Chill: 51°   Ceiling: 1200
Heat Index: 51°   Visibility: 2mi
Dew Point: 48°   Wind: 20mph
Humidity: 89%   Direction: 30°NNE
Pressure: 29.77"   Gusts: 36mph
Location:  43.74°N, 70.01°W
Report Text: KPWM 231351Z 03017G31KT 2SM -RA BR BKN012 OVC023 11/09 A2977 RMK AO2 PK WND 03032/1253 SLP079 P0008 T01060089
Loading
Personal Weather Stations






























Interactive Weather Map
Tropical Storm Tracking
New forecast layout! Learn more

10-Day Weather Forecast

Advertisements
Track Severe Weather on mobile